KFSM/FSM METAR and TAF weather

Enter ICAO airport designator
Station Type Date Time Source
KFSM METAR 2019/06/16 04:53 UTC NOAA

KFSM 160453Z AUTO 00000KT 10SM CLR 26/22 A2983 RMK AO2 SLP096 T02610217


Station Type Date Time Source
KFSM Decoded METAR 2019/06/16 04:53 UTC NOAA

FORT SMITH REGIONAL AIRPORT, AR, United States (KFSM) 35-20N 94-22W 140M
Jun 16, 2019 - 12:53 AM EDT / 2019.06.16 0453 UTC
Wind: Calm:0
Visibility: 10 mile(s):0
Sky conditions: clear
Temperature: 79.0 F (26.1 C)
Dew Point: 71.1 F (21.7 C)
Relative Humidity: 76%
Pressure (altimeter): 29.83 in. Hg (1010 hPa)
ob: KFSM 160453Z AUTO 00000KT 10SM CLR 26/22 A2983 RMK AO2 SLP096 T02610217
cycle: 5

Station Type Date Time Source
KFSM TAF 2019/06/15 18:36 UTC NOAA

TAF KFSM 151734Z 1518/1618 19012G20KT P6SM SCT040 BKN120
FM160100 17007KT P6SM SCT040 BKN250
FM160600 11005KT P6SM SCT035 BKN200
TEMPO 1608/1612 3SM TSRA BKN025CB
FM161200 11006KT P6SM BKN035 PROB30 1612/1618 4SM TSRA BKN025CB

Example: see airport list